Time;durP1;ratioP1;P1;durP2;ratioP2;P2;SDS_P1;SDS_P2;PMS_P1;PMS_P2;Temp;Humidity;BMP_temperature;BMP_pressure;BME280_temperature;BME280_humidity;BME280_pressure;Samples;Min_cycle;Max_cycle;Signal;HPM_P1;HPM_P2
2021/12/31 00:01:10;;;;;;;4.22;2.30;;;9.20;95.00;;;;;;5035840;28;20108;-67
2021/12/31 00:03:38;;;;;;;4.38;2.10;;;9.10;95.40;;;;;;5036518;28;20026;-67
2021/12/31 00:06:07;;;;;;;4.25;2.05;;;9.10;94.70;;;;;;5040216;28;20022;-67
2021/12/31 00:08:39;;;;;;;4.90;2.40;;;9.10;93.80;;;;;;5043370;28;20056;-67
2021/12/31 00:11:07;;;;;;;5.30;2.20;;;9.10;94.50;;;;;;5037910;28;20462;-67
2021/12/31 00:13:34;;;;;;;6.22;2.75;;;8.90;95.10;;;;;;5029696;28;20333;-67
2021/12/31 00:16:02;;;;;;;4.15;2.08;;;8.90;94.30;;;;;;5035266;28;20421;-67
2021/12/31 00:18:29;;;;;;;4.95;2.30;;;8.90;94.00;;;;;;5031075;28;20053;-67
2021/12/31 00:20:56;;;;;;;3.83;2.10;;;8.70;93.80;;;;;;5043542;28;20041;-67
2021/12/31 00:23:26;;;;;;;4.00;2.05;;;8.70;93.30;;;;;;5025932;28;20022;-67
2021/12/31 00:25:52;;;;;;;3.15;1.48;;;8.80;92.30;;;;;;5012525;28;20018;-67
2021/12/31 00:28:19;;;;;;;3.72;1.70;;;9.00;91.40;;;;;;5016449;28;20105;-67
2021/12/31 00:30:51;;;;;;;3.22;1.77;;;9.20;91.50;;;;;;5032142;28;20108;-67
2021/12/31 00:33:17;;;;;;;2.97;1.50;;;9.30;91.90;;;;;;5016516;28;20037;-67
2021/12/31 00:35:43;;;;;;;7.65;1.90;;;9.40;91.90;;;;;;5034946;28;20043;-67
2021/12/31 00:38:11;;;;;;;3.45;1.50;;;9.40;92.40;;;;;;5020932;28;20050;-67
2021/12/31 00:40:37;;;;;;;5.40;1.67;;;9.50;93.30;;;;;;5019587;28;20028;-67
2021/12/31 00:43:06;;;;;;;3.13;1.40;;;9.40;95.30;;;;;;5015967;28;20118;-67
2021/12/31 00:45:37;;;;;;;3.97;1.83;;;9.20;95.20;;;;;;5017452;28;20084;-67
2021/12/31 00:48:03;;;;;;;4.25;1.98;;;9.00;95.20;;;;;;5043261;28;20021;-67
2021/12/31 00:50:29;;;;;;;4.30;1.90;;;9.00;95.00;;;;;;5019441;28;20036;-67
2021/12/31 00:52:55;;;;;;;3.38;1.60;;;9.00;94.80;;;;;;5016678;28;20030;-67
2021/12/31 00:55:21;;;;;;;3.60;1.90;;;9.00;94.50;;;;;;5021932;28;20034;-67
2021/12/31 00:57:48;;;;;;;4.28;1.80;;;9.00;94.90;;;;;;5032768;28;20036;-67
2021/12/31 01:00:16;;;;;;;4.10;1.60;;;8.90;94.90;;;;;;5021293;28;20476;-67
2021/12/31 01:02:46;;;;;;;6.35;1.60;;;8.90;94.90;;;;;;5025379;28;20022;-67
2021/12/31 01:05:13;;;;;;;5.82;1.67;;;8.80;94.80;;;;;;5021001;28;20500;-67
2021/12/31 01:07:41;;;;;;;3.70;1.70;;;8.80;94.60;;;;;;5026817;28;20109;-67
2021/12/31 01:10:12;;;;;;;3.40;1.70;;;8.80;94.60;;;;;;5018794;28;20025;-67
2021/12/31 01:12:38;;;;;;;3.50;1.70;;;8.80;94.10;;;;;;5016040;28;20037;-67
2021/12/31 01:15:09;;;;;;;5.78;2.05;;;8.80;94.20;;;;;;5021893;28;20022;-67
2021/12/31 01:17:46;;;;;;;3.88;1.70;;;8.70;93.80;;;;;;5013952;28;20076;-67
2021/12/31 01:20:17;;;;;;;5.10;2.00;;;8.70;94.20;;;;;;5029109;28;20055;-67
2021/12/31 01:22:43;;;;;;;4.80;1.80;;;8.70;93.60;;;;;;5039580;28;20124;-67
2021/12/31 01:25:10;;;;;;;8.20;2.10;;;8.80;93.80;;;;;;5048293;28;20079;-67
2021/12/31 01:27:38;;;;;;;6.78;2.38;;;8.80;94.20;;;;;;5041718;28;20017;-67
2021/12/31 01:30:07;;;;;;;3.65;1.80;;;8.70;94.40;;;;;;5027105;28;20040;-67
2021/12/31 01:32:33;;;;;;;3.50;1.67;;;8.60;94.60;;;;;;5033560;28;20468;-67
2021/12/31 01:35:00;;;;;;;4.47;2.10;;;8.50;94.40;;;;;;5037366;28;20029;-67
2021/12/31 01:37:27;;;;;;;3.92;2.00;;;8.40;94.10;;;;;;5044928;28;20111;-67
2021/12/31 01:39:53;;;;;;;6.40;2.13;;;8.40;93.90;;;;;;5036530;28;20029;-67
2021/12/31 01:42:26;;;;;;;4.43;1.75;;;8.30;94.30;;;;;;5045100;28;20056;-67
2021/12/31 01:44:57;;;;;;;5.53;2.00;;;8.20;93.90;;;;;;5038578;28;20124;-67
2021/12/31 01:47:34;;;;;;;5.72;2.00;;;8.10;93.50;;;;;;5050301;28;20279;-67
2021/12/31 01:50:08;;;;;;;6.28;2.15;;;8.10;93.50;;;;;;5018121;28;20448;-67
2021/12/31 01:52:35;;;;;;;5.03;1.80;;;8.00;93.20;;;;;;5034943;28;20433;-67
2021/12/31 01:55:03;;;;;;;4.68;2.00;;;7.90;93.50;;;;;;5045064;28;20066;-67
2021/12/31 01:57:30;;;;;;;5.93;2.65;;;7.80;92.70;;;;;;5048952;28;20037;-67
2021/12/31 01:59:56;;;;;;;5.18;2.20;;;7.70;93.10;;;;;;5032634;28;20456;-67
2021/12/31 02:02:22;;;;;;;7.07;1.90;;;7.60;92.50;;;;;;5034447;28;20087;-67
2021/12/31 02:04:49;;;;;;;4.57;2.20;;;7.50;92.50;;;;;;5026209;28;20044;-67
2021/12/31 02:07:15;;;;;;;3.78;2.00;;;7.50;91.60;;;;;;5033459;28;20025;-67
2021/12/31 02:09:49;;;;;;;6.57;2.00;;;7.40;91.80;;;;;;5039218;28;20021;-67
2021/12/31 02:12:18;;;;;;;5.28;2.03;;;7.40;91.80;;;;;;5039175;28;20029;-67
2021/12/31 02:14:46;;;;;;;4.75;2.28;;;7.40;91.90;;;;;;5038112;28;20096;-67
2021/12/31 02:17:14;;;;;;;5.78;1.77;;;7.30;91.20;;;;;;5037872;28;20444;-67
2021/12/31 02:19:43;;;;;;;4.82;2.30;;;7.30;90.60;;;;;;5038126;28;20120;-67
2021/12/31 02:22:09;;;;;;;4.07;1.88;;;7.40;89.80;;;;;;5041453;28;20075;-67
2021/12/31 02:24:36;;;;;;;7.25;1.83;;;7.50;91.00;;;;;;5044085;28;20031;-67
2021/12/31 02:27:04;;;;;;;6.80;1.95;;;7.40;91.60;;;;;;5049121;28;20032;-67
2021/12/31 02:29:31;;;;;;;4.28;1.92;;;7.30;92.00;;;;;;5039079;28;20021;-67
2021/12/31 02:31:59;;;;;;;4.75;2.10;;;7.40;90.10;;;;;;5039719;28;20144;-67
2021/12/31 02:34:25;;;;;;;5.03;1.80;;;7.50;91.00;;;;;;5042144;28;20425;-67
2021/12/31 02:36:51;;;;;;;7.15;2.13;;;7.40;91.60;;;;;;5041115;28;20044;-67
2021/12/31 02:39:17;;;;;;;4.88;2.05;;;7.30;91.20;;;;;;5038719;28;20040;-67
2021/12/31 02:41:44;;;;;;;6.13;1.80;;;7.40;91.70;;;;;;5055425;28;20029;-67
2021/12/31 02:44:10;;;;;;;4.97;1.80;;;7.30;92.90;;;;;;5025847;28;20036;-67
2021/12/31 02:46:56;;;;;;;5.30;2.13;;;7.30;91.20;;;;;;5049735;28;20057;-67
2021/12/31 02:49:24;;;;;;;4.28;1.98;;;7.30;93.00;;;;;;5045926;28;20434;-67
2021/12/31 02:51:51;;;;;;;7.40;2.15;;;7.30;92.20;;;;;;5039605;28;20033;-67
2021/12/31 02:54:19;;;;;;;5.05;1.80;;;7.30;92.90;;;;;;5027062;28;20033;-67
2021/12/31 02:56:46;;;;;;;5.43;1.83;;;7.30;92.10;;;;;;5037831;28;20036;-68
2021/12/31 02:59:13;;;;;;;3.55;1.85;;;7.30;93.00;;;;;;5036720;28;20052;-67
2021/12/31 03:01:40;;;;;;;3.58;1.90;;;7.30;92.50;;;;;;5035705;28;20389;-68
2021/12/31 03:04:08;;;;;;;6.53;2.50;;;7.50;91.40;;;;;;5034999;28;20037;-67
2021/12/31 03:06:37;;;;;;;7.15;2.88;;;7.60;92.70;;;;;;5038201;28;20033;-67
2021/12/31 03:09:05;;;;;;;5.82;3.33;;;7.70;93.10;;;;;;5037672;28;20028;-67
2021/12/31 03:11:37;;;;;;;7.20;3.33;;;7.80;93.50;;;;;;5038641;28;20025;-67
2021/12/31 03:14:06;;;;;;;4.47;2.53;;;7.80;94.80;;;;;;5037198;28;20028;-67
2021/12/31 03:16:39;;;;;;;6.20;2.30;;;7.80;95.00;;;;;;5019117;28;20055;-68
2021/12/31 03:19:05;;;;;;;6.03;2.90;;;7.70;95.40;;;;;;5040259;28;20212;-68
2021/12/31 03:21:31;;;;;;;3.90;1.98;;;7.70;95.30;;;;;;5038369;28;20033;-68
2021/12/31 03:24:00;;;;;;;4.85;2.00;;;7.70;95.00;;;;;;5035026;28;20044;-67
2021/12/31 03:26:26;;;;;;;5.10;2.30;;;7.70;95.20;;;;;;5019615;28;20438;-67
2021/12/31 03:28:52;;;;;;;3.53;1.77;;;7.80;95.80;;;;;;5037921;28;20109;-67
2021/12/31 03:31:18;;;;;;;6.18;3.50;;;7.70;95.80;;;;;;5044898;28;20396;-67
2021/12/31 03:33:44;;;;;;;6.65;3.03;;;7.70;95.60;;;;;;5034807;28;20075;-67
2021/12/31 03:36:11;;;;;;;5.97;2.60;;;7.70;96.30;;;;;;5053577;28;20032;-67
2021/12/31 03:38:37;;;;;;;7.32;2.40;;;7.70;96.20;;;;;;5044111;28;20033;-67
2021/12/31 03:41:03;;;;;;;6.82;2.45;;;7.70;96.20;;;;;;5043567;28;20428;-67
2021/12/31 03:43:29;;;;;;;4.53;1.98;;;7.60;96.20;;;;;;5051512;28;20104;-67
2021/12/31 03:45:56;;;;;;;5.53;2.17;;;7.70;96.10;;;;;;5036206;28;20416;-67
2021/12/31 03:48:23;;;;;;;4.22;1.83;;;7.70;96.30;;;;;;5045974;28;20373;-67
2021/12/31 03:50:49;;;;;;;5.25;2.10;;;7.70;96.20;;;;;;5057435;28;20112;-67
2021/12/31 03:53:15;;;;;;;4.88;2.15;;;7.80;96.60;;;;;;5043641;28;20030;-67
2021/12/31 03:55:42;;;;;;;4.57;2.35;;;7.70;97.10;;;;;;5038962;28;20028;-67
2021/12/31 03:58:08;;;;;;;5.40;2.30;;;7.70;96.80;;;;;;5043805;28;20091;-67
2021/12/31 04:00:34;;;;;;;6.55;2.47;;;7.60;96.90;;;;;;5034599;28;20092;-67
2021/12/31 04:03:07;;;;;;;4.35;2.17;;;7.50;97.00;;;;;;5036813;28;20318;-67
2021/12/31 04:05:34;;;;;;;4.45;1.60;;;7.40;96.80;;;;;;5044596;28;20498;-67
2021/12/31 04:08:01;;;;;;;4.60;1.90;;;7.50;96.30;;;;;;5037953;28;20037;-67
2021/12/31 04:10:28;;;;;;;7.93;2.05;;;7.40;96.80;;;;;;5038523;28;20036;-67
2021/12/31 04:12:55;;;;;;;3.88;1.90;;;7.40;97.20;;;;;;5050559;28;20066;-67
2021/12/31 04:15:21;;;;;;;4.28;1.83;;;7.30;96.30;;;;;;5056674;28;20086;-67
2021/12/31 04:17:47;;;;;;;8.18;1.90;;;7.30;96.80;;;;;;5048234;28;20029;-67
2021/12/31 04:20:22;;;;;;;4.55;2.00;;;7.20;96.90;;;;;;5056059;28;20052;-67
2021/12/31 04:22:54;;;;;;;4.90;1.83;;;7.00;96.70;;;;;;5049091;28;20045;-67
2021/12/31 04:25:22;;;;;;;4.13;1.80;;;6.90;96.90;;;;;;5052938;28;20040;-67
2021/12/31 04:27:48;;;;;;;4.55;2.00;;;6.80;96.20;;;;;;5036645;28;20075;-67
2021/12/31 04:30:14;;;;;;;4.22;1.90;;;6.60;96.00;;;;;;5036039;28;20048;-67
2021/12/31 04:32:42;;;;;;;6.38;2.25;;;6.50;96.30;;;;;;5021485;28;20334;-67
2021/12/31 04:35:10;;;;;;;6.10;1.90;;;6.50;95.40;;;;;;5043715;28;20037;-67
2021/12/31 04:37:36;;;;;;;6.38;2.35;;;6.50;94.80;;;;;;5033675;28;20029;-67
2021/12/31 04:40:02;;;;;;;4.88;1.90;;;6.50;94.60;;;;;;5041275;28;20032;-67
2021/12/31 04:42:27;;;;;;;5.93;1.90;;;6.60;94.10;;;;;;5041187;28;20035;-67
2021/12/31 04:44:53;;;;;;;5.20;1.88;;;6.40;94.80;;;;;;5035624;28;20029;-67
2021/12/31 04:47:19;;;;;;;4.60;1.67;;;6.30;94.00;;;;;;5040887;28;20020;-67
2021/12/31 04:49:45;;;;;;;5.25;2.05;;;6.40;92.70;;;;;;5045968;28;20045;-67
2021/12/31 04:52:11;;;;;;;3.60;1.60;;;6.40;92.40;;;;;;5039285;28;20104;-67
2021/12/31 04:54:37;;;;;;;5.88;2.42;;;6.60;91.70;;;;;;5038678;28;20076;-67
2021/12/31 04:57:03;;;;;;;5.30;2.00;;;6.60;92.50;;;;;;5025689;28;20032;-67
2021/12/31 04:59:29;;;;;;;6.20;2.00;;;6.60;92.70;;;;;;5036596;28;20048;-67
2021/12/31 05:01:55;;;;;;;4.97;2.03;;;6.50;92.50;;;;;;5036737;28;20025;-67
2021/12/31 05:04:21;;;;;;;6.63;2.15;;;6.50;93.10;;;;;;5035760;28;20025;-67
2021/12/31 05:06:49;;;;;;;4.93;2.20;;;6.40;93.40;;;;;;5039657;28;20025;-67
2021/12/31 05:09:15;;;;;;;5.88;1.90;;;6.30;92.30;;;;;;5035751;28;20030;-67
2021/12/31 05:11:41;;;;;;;5.10;1.92;;;6.30;92.70;;;;;;5036764;28;20522;-67
2021/12/31 05:14:07;;;;;;;4.50;2.00;;;6.40;91.00;;;;;;5040088;28;20026;-67
2021/12/31 05:16:35;;;;;;;5.30;2.05;;;6.40;91.50;;;;;;5033904;28;20443;-67
2021/12/31 05:19:02;;;;;;;3.92;1.77;;;6.40;91.90;;;;;;5038054;28;20076;-67
2021/12/31 05:21:28;;;;;;;4.75;2.00;;;6.40;91.50;;;;;;5041164;28;20040;-67
2021/12/31 05:23:54;;;;;;;6.75;2.00;;;6.40;91.30;;;;;;5044174;28;20026;-67
2021/12/31 05:26:20;;;;;;;4.30;2.10;;;6.50;90.60;;;;;;5043591;28;20434;-67
2021/12/31 05:28:46;;;;;;;4.82;1.90;;;6.60;91.00;;;;;;5036068;28;20021;-67
2021/12/31 05:31:12;;;;;;;4.30;1.98;;;6.60;90.50;;;;;;5034897;28;20045;-67
2021/12/31 05:33:38;;;;;;;3.75;1.80;;;6.60;91.00;;;;;;5041646;28;20064;-68
2021/12/31 05:36:04;;;;;;;3.40;1.60;;;6.60;91.10;;;;;;5043102;28;20052;-68
2021/12/31 05:38:29;;;;;;;4.80;1.77;;;6.50;91.30;;;;;;5042986;28;20033;-69
2021/12/31 05:40:55;;;;;;;3.65;1.58;;;6.40;91.30;;;;;;5042131;28;20044;-68
2021/12/31 05:43:21;;;;;;;3.63;1.73;;;6.30;91.50;;;;;;5046483;28;20026;-68
2021/12/31 05:45:46;;;;;;;3.08;1.63;;;6.20;90.90;;;;;;5020882;28;20036;-68
2021/12/31 05:48:12;;;;;;;4.00;1.80;;;6.20;90.80;;;;;;5038590;28;20018;-69
2021/12/31 05:50:37;;;;;;;4.05;1.83;;;6.20;90.20;;;;;;5038657;28;20072;-69
2021/12/31 05:53:03;;;;;;;3.47;1.67;;;6.20;90.40;;;;;;5043672;28;20029;-68
2021/12/31 05:55:29;;;;;;;6.07;2.00;;;6.20;89.70;;;;;;5042506;28;20056;-68
2021/12/31 05:57:56;;;;;;;5.57;2.05;;;6.10;90.40;;;;;;5046976;28;20029;-67
2021/12/31 06:00:23;;;;;;;4.95;2.15;;;6.10;89.70;;;;;;5024214;28;20034;-68
2021/12/31 06:02:49;;;;;;;4.25;1.92;;;6.10;89.40;;;;;;5038513;28;20025;-69
2021/12/31 06:05:15;;;;;;;5.20;1.85;;;6.00;89.60;;;;;;5045995;28;20485;-69
2021/12/31 06:07:40;;;;;;;3.55;1.85;;;5.90;89.30;;;;;;5039510;28;20061;-68
2021/12/31 06:10:06;;;;;;;4.45;1.60;;;5.90;88.70;;;;;;5043530;28;20021;-68
2021/12/31 06:12:35;;;;;;;2.92;1.55;;;6.00;88.10;;;;;;5048587;28;20501;-69
2021/12/31 06:15:04;;;;;;;3.90;2.20;;;6.00;88.00;;;;;;5039195;28;20033;-69
2021/12/31 06:17:31;;;;;;;3.30;1.92;;;6.10;87.30;;;;;;5039640;28;20035;-68
2021/12/31 06:19:57;;;;;;;4.00;1.77;;;6.00;88.80;;;;;;5043613;28;20045;-68
2021/12/31 06:22:24;;;;;;;3.60;1.80;;;6.10;87.70;;;;;;5022925;28;20087;-69
2021/12/31 06:24:53;;;;;;;3.80;1.73;;;6.30;87.10;;;;;;5051035;28;20027;-68
2021/12/31 06:27:19;;;;;;;4.65;1.50;;;6.10;89.70;;;;;;5045350;28;20029;-68
2021/12/31 06:29:45;;;;;;;3.45;1.65;;;6.00;88.20;;;;;;5029268;28;20030;-68
2021/12/31 06:32:14;;;;;;;4.32;1.60;;;5.90;88.60;;;;;;5042666;28;20017;-68
2021/12/31 06:34:39;;;;;;;2.55;1.33;;;5.90;88.10;;;;;;5042484;28;20091;-68
2021/12/31 06:37:05;;;;;;;3.08;1.60;;;6.00;86.90;;;;;;5038343;28;20446;-68
2021/12/31 06:39:31;;;;;;;2.47;1.30;;;6.10;87.20;;;;;;5039788;28;20432;-67
2021/12/31 06:42:03;;;;;;;3.25;1.58;;;6.10;87.00;;;;;;5037283;28;20076;-68
2021/12/31 06:44:32;;;;;;;3.65;1.73;;;6.00;87.70;;;;;;5040388;28;20017;-68
2021/12/31 06:46:58;;;;;;;6.75;1.90;;;6.00;88.50;;;;;;5041171;28;20061;-68
2021/12/31 06:49:23;;;;;;;4.47;1.88;;;5.90;88.00;;;;;;5049205;28;20099;-69
2021/12/31 06:51:49;;;;;;;3.55;1.45;;;5.80;88.70;;;;;;5038630;28;20033;-69
2021/12/31 06:54:15;;;;;;;3.95;1.40;;;5.60;88.90;;;;;;5042648;28;20061;-69
2021/12/31 06:56:40;;;;;;;3.05;1.50;;;5.50;88.70;;;;;;5037723;28;20027;-69
2021/12/31 06:59:06;;;;;;;4.15;2.03;;;5.30;89.30;;;;;;5038385;28;20029;-69
2021/12/31 07:01:31;;;;;;;4.80;3.15;;;5.20;89.30;;;;;;5037101;28;20041;-68
2021/12/31 07:04:00;;;;;;;8.95;6.22;;;5.00;89.60;;;;;;5047132;28;20076;-69
2021/12/31 07:06:26;;;;;;;24.73;13.95;;;5.00;89.00;;;;;;5041990;28;20025;-68
2021/12/31 07:08:51;;;;;;;12.73;8.38;;;4.90;88.90;;;;;;5034828;28;20033;-69
2021/12/31 07:11:20;;;;;;;6.72;4.45;;;4.90;88.40;;;;;;5031252;28;20453;-69
2021/12/31 07:13:45;;;;;;;4.45;2.83;;;4.90;87.80;;;;;;5045611;28;20033;-68
2021/12/31 07:16:11;;;;;;;5.32;2.95;;;5.00;86.80;;;;;;5038597;28;20079;-68
2021/12/31 07:18:36;;;;;;;7.10;4.05;;;5.10;86.60;;;;;;5041278;28;20057;-68
2021/12/31 07:21:03;;;;;;;5.43;3.55;;;5.30;85.90;;;;;;5051693;28;20036;-69
2021/12/31 07:23:28;;;;;;;6.10;3.35;;;5.30;87.10;;;;;;5046242;28;20299;-68
2021/12/31 07:25:54;;;;;;;6.18;3.15;;;5.20;86.40;;;;;;5043749;28;20029;-69
2021/12/31 07:28:21;;;;;;;6.47;3.78;;;5.50;84.50;;;;;;5039636;28;20053;-68
2021/12/31 07:30:47;;;;;;;6.30;3.95;;;5.60;85.20;;;;;;5045444;28;20025;-68
2021/12/31 07:33:15;;;;;;;5.47;3.40;;;6.00;83.90;;;;;;5043162;28;20307;-69
2021/12/31 07:35:42;;;;;;;16.10;9.32;;;6.00;86.10;;;;;;5036764;28;20029;-68
2021/12/31 07:38:10;;;;;;;23.02;11.55;;;5.80;86.40;;;;;;5038018;28;20049;-68
2021/12/31 07:40:41;;;;;;;10.10;5.55;;;5.80;86.60;;;;;;5049710;28;20037;-68
2021/12/31 07:43:08;;;;;;;18.75;10.18;;;5.80;85.00;;;;;;5037142;28;20037;-68
2021/12/31 07:45:35;;;;;;;24.00;13.35;;;6.10;84.20;;;;;;5037173;28;20025;-68
2021/12/31 07:48:03;;;;;;;15.25;9.00;;;6.10;85.10;;;;;;5038855;28;20037;-69
2021/12/31 07:50:30;;;;;;;9.13;4.47;;;6.00;86.60;;;;;;5043158;28;20100;-68
2021/12/31 07:52:56;;;;;;;5.95;3.20;;;5.60;87.70;;;;;;5045866;28;20053;-69
2021/12/31 07:55:21;;;;;;;7.43;4.15;;;5.40;87.40;;;;;;5036776;28;20064;-69
2021/12/31 07:57:47;;;;;;;5.65;3.22;;;5.30;86.30;;;;;;5036322;28;20110;-68
2021/12/31 08:00:13;;;;;;;6.55;3.80;;;5.50;84.50;;;;;;5036729;28;20057;-69
2021/12/31 08:02:39;;;;;;;8.20;4.22;;;5.90;83.70;;;;;;5035163;28;20029;-68
2021/12/31 08:05:06;;;;;;;10.02;4.25;;;6.00;84.70;;;;;;5036815;28;20026;-70
2021/12/31 08:07:31;;;;;;;7.05;3.55;;;6.10;84.70;;;;;;5035646;28;20472;-68
2021/12/31 08:09:57;;;;;;;9.05;3.50;;;6.10;84.70;;;;;;5036444;28;20033;-70
2021/12/31 08:12:23;;;;;;;8.23;4.65;;;6.10;85.20;;;;;;5041832;28;20032;-68
2021/12/31 08:14:49;;;;;;;8.13;5.38;;;6.10;84.80;;;;;;5041304;28;20029;-68
2021/12/31 08:17:15;;;;;;;10.55;6.68;;;6.20;84.30;;;;;;5041104;28;20402;-68
2021/12/31 08:19:41;;;;;;;10.93;7.57;;;6.50;83.90;;;;;;5038994;28;20041;-68
2021/12/31 08:22:07;;;;;;;8.80;6.47;;;6.60;84.30;;;;;;5035533;28;20117;-68
2021/12/31 08:24:33;;;;;;;12.65;6.53;;;6.60;84.40;;;;;;5037820;28;20045;-69
2021/12/31 08:26:59;;;;;;;13.02;6.05;;;6.60;84.60;;;;;;5036141;28;20021;-68
2021/12/31 08:29:24;;;;;;;8.88;5.35;;;6.60;84.60;;;;;;5036047;28;20025;-68
2021/12/31 08:31:50;;;;;;;8.60;5.22;;;6.70;84.40;;;;;;5048429;28;20053;-68
2021/12/31 08:34:16;;;;;;;9.25;5.60;;;6.80;84.30;;;;;;5044356;28;20100;-68
2021/12/31 08:36:41;;;;;;;9.20;5.28;;;6.90;84.60;;;;;;5037104;28;20068;-69
2021/12/31 08:39:08;;;;;;;9.07;5.40;;;7.00;84.70;;;;;;5043732;28;20054;-68
2021/12/31 08:41:34;;;;;;;7.47;4.30;;;7.40;82.80;;;;;;5035417;28;20057;-69
2021/12/31 08:44:00;;;;;;;8.23;4.68;;;8.10;83.00;;;;;;5037132;28;20032;-69
2021/12/31 08:46:26;;;;;;;7.60;4.45;;;8.40;83.80;;;;;;5034571;28;20025;-68
2021/12/31 08:48:52;;;;;;;4.80;3.15;;;8.70;85.00;;;;;;5033706;28;20084;-69
2021/12/31 08:51:18;;;;;;;5.40;3.42;;;9.30;86.90;;;;;;5035630;28;20025;-69
2021/12/31 08:53:44;;;;;;;5.50;3.30;;;10.10;91.60;;;;;;5040185;28;20079;-68
2021/12/31 08:56:10;;;;;;;5.05;2.58;;;10.70;98.00;;;;;;5035429;28;20025;-69
2021/12/31 08:58:35;;;;;;;4.85;2.67;;;11.10;98.00;;;;;;5035972;28;20087;-69
2021/12/31 09:01:01;;;;;;;5.15;2.70;;;11.80;98.00;;;;;;5034602;28;20022;-69
2021/12/31 09:03:27;;;;;;;4.30;2.20;;;12.60;98.00;;;;;;5044044;28;20032;-69
2021/12/31 09:05:52;;;;;;;3.80;1.95;;;12.90;98.00;;;;;;5035394;28;20057;-69
2021/12/31 09:08:18;;;;;;;4.88;2.67;;;12.80;98.00;;;;;;5037162;28;20025;-69
2021/12/31 09:10:43;;;;;;;3.97;2.05;;;12.80;96.80;;;;;;5036570;28;20417;-69
2021/12/31 09:13:09;;;;;;;3.95;2.28;;;13.20;98.00;;;;;;5034437;28;20322;-69
2021/12/31 09:15:35;;;;;;;4.13;2.25;;;13.70;96.10;;;;;;5034949;28;20041;-69
2021/12/31 09:18:00;;;;;;;6.55;3.10;;;13.60;95.30;;;;;;5039230;28;20371;-70
2021/12/31 09:20:27;;;;;;;5.90;3.17;;;13.90;97.30;;;;;;5041252;28;20030;-68
2021/12/31 09:22:53;;;;;;;7.75;4.18;;;14.60;96.50;;;;;;5040835;28;20021;-69
2021/12/31 09:25:19;;;;;;;6.30;3.00;;;15.50;94.40;;;;;;5048883;28;20032;-68
2021/12/31 09:27:44;;;;;;;6.68;3.33;;;15.50;91.80;;;;;;5037876;28;20149;-69
2021/12/31 09:30:11;;;;;;;7.43;3.50;;;15.50;89.20;;;;;;5022444;28;20036;-68
2021/12/31 09:32:37;;;;;;;5.65;2.58;;;15.10;91.10;;;;;;5044270;28;20060;-68
2021/12/31 09:35:03;;;;;;;3.90;2.10;;;15.00;89.70;;;;;;5034383;28;20034;-68
2021/12/31 09:37:28;;;;;;;4.28;2.08;;;14.70;90.80;;;;;;5043617;28;20052;-68
2021/12/31 09:39:54;;;;;;;3.97;1.90;;;14.40;91.40;;;;;;5034876;28;20033;-68
2021/12/31 09:42:20;;;;;;;3.13;1.50;;;14.60;91.90;;;;;;5034998;28;20326;-68
2021/12/31 09:44:49;;;;;;;3.70;1.90;;;15.50;90.70;;;;;;5037200;28;20461;-69
2021/12/31 09:47:16;;;;;;;3.25;1.50;;;15.90;89.90;;;;;;5019101;28;20371;-69
2021/12/31 09:49:42;;;;;;;2.83;1.48;;;16.10;86.60;;;;;;5021436;28;20029;-69
2021/12/31 09:52:10;;;;;;;2.40;1.30;;;16.50;86.70;;;;;;5040254;28;20333;-69
2021/12/31 09:54:43;;;;;;;3.20;1.50;;;16.90;84.60;;;;;;5052686;28;20046;-69
2021/12/31 09:57:17;;;;;;;2.93;1.43;;;17.40;83.90;;;;;;5052184;28;20024;-69
2021/12/31 09:59:43;;;;;;;3.45;1.40;;;17.40;82.90;;;;;;5035072;28;20476;-69
2021/12/31 10:02:10;;;;;;;2.55;1.33;;;17.60;82.30;;;;;;5035072;28;20033;-69
2021/12/31 10:04:58;;;;;;;2.38;1.15;;;17.60;82.80;;;;;;5047615;28;20413;-68
2021/12/31 10:07:24;;;;;;;2.78;1.45;;;17.60;82.60;;;;;;5021985;28;20325;-69
2021/12/31 10:10:13;;;;;;;2.00;1.00;;;17.10;83.20;;;;;;5034199;28;20030;-68
2021/12/31 10:13:01;;;;;;;1.73;0.93;;;16.70;84.60;;;;;;5035687;28;20425;-68
2021/12/31 10:15:27;;;;;;;2.85;1.20;;;17.00;84.40;;;;;;5034086;28;20033;-68
2021/12/31 10:17:54;;;;;;;2.40;1.25;;;17.60;83.40;;;;;;5033758;28;20022;-68
2021/12/31 10:20:22;;;;;;;2.45;1.15;;;17.80;82.30;;;;;;5036965;28;20040;-68
2021/12/31 10:22:48;;;;;;;2.80;1.40;;;17.80;82.70;;;;;;5044986;28;20025;-68
2021/12/31 10:25:18;;;;;;;2.60;1.25;;;18.10;81.10;;;;;;5035119;28;20029;-68
2021/12/31 10:27:44;;;;;;;2.97;1.30;;;17.80;82.80;;;;;;5042556;28;20096;-68
2021/12/31 10:30:10;;;;;;;3.60;1.20;;;18.10;82.60;;;;;;5038976;28;20133;-68
2021/12/31 10:32:40;;;;;;;2.50;1.20;;;18.10;82.10;;;;;;5036732;28;20025;-68
2021/12/31 10:35:14;;;;;;;1.77;0.93;;;18.00;82.80;;;;;;5038631;28;20067;-69
2021/12/31 10:38:01;;;;;;;2.42;1.27;;;18.80;82.30;;;;;;5044192;28;20101;-69
2021/12/31 10:40:46;;;;;;;3.92;1.10;;;18.90;81.00;;;;;;5038041;28;20029;-68
2021/12/31 10:43:21;;;;;;;2.63;1.13;;;19.00;81.30;;;;;;5037374;28;20021;-69
2021/12/31 10:46:08;;;;;;;2.42;1.10;;;19.80;79.70;;;;;;5039725;28;20038;-68
2021/12/31 10:48:46;;;;;;;2.30;1.23;;;19.50;79.90;;;;;;5038221;28;20036;-68
2021/12/31 10:51:13;;;;;;;3.80;1.20;;;18.90;80.70;;;;;;5038086;28;20030;-68
2021/12/31 10:53:41;;;;;;;2.35;1.02;;;18.90;81.10;;;;;;5038193;28;20037;-68
2021/12/31 10:56:14;;;;;;;1.52;0.98;;;19.30;80.60;;;;;;5038208;28;20033;-68
2021/12/31 10:59:03;;;;;;;2.40;1.13;;;20.30;78.70;;;;;;5040622;28;20079;-68
2021/12/31 11:01:29;;;;;;;1.58;0.90;;;20.10;77.40;;;;;;5029036;28;20036;-68
2021/12/31 11:03:55;;;;;;;1.85;0.95;;;19.30;79.70;;;;;;5016643;28;20030;-68
2021/12/31 11:06:23;;;;;;;2.00;1.00;;;18.90;81.40;;;;;;5029251;28;20047;-68
2021/12/31 11:08:50;;;;;;;1.60;0.88;;;19.40;79.50;;;;;;5037940;28;20087;-69
2021/12/31 11:11:18;;;;;;;2.20;1.10;;;19.60;78.50;;;;;;5037134;28;20033;-68
2021/12/31 11:13:45;;;;;;;6.35;3.22;;;19.40;78.40;;;;;;5036482;28;20040;-68
2021/12/31 11:16:13;;;;;;;5.05;2.60;;;19.80;78.60;;;;;;5037483;28;20037;-68
2021/12/31 11:18:43;;;;;;;3.45;1.83;;;19.80;77.60;;;;;;5035278;28;20041;-68
2021/12/31 11:21:12;;;;;;;3.00;1.40;;;19.20;77.90;;;;;;5038964;28;20059;-69
2021/12/31 11:23:40;;;;;;;4.40;2.33;;;18.50;79.70;;;;;;5037004;28;20029;-69
2021/12/31 11:26:08;;;;;;;4.55;2.33;;;18.50;80.90;;;;;;5037087;28;20386;-69
2021/12/31 11:28:36;;;;;;;3.50;1.88;;;18.10;81.50;;;;;;5039579;28;20083;-68
2021/12/31 11:31:17;;;;;;;3.60;1.90;;;18.10;81.60;;;;;;5050223;28;20030;-69
2021/12/31 11:33:44;;;;;;;3.55;1.55;;;18.20;82.30;;;;;;5035326;28;20108;-68
2021/12/31 11:36:13;;;;;;;2.92;1.38;;;18.10;80.40;;;;;;5026601;28;20465;-69
2021/12/31 11:38:42;;;;;;;3.33;1.77;;;17.80;81.20;;;;;;5034469;28;20434;-68
2021/12/31 11:41:20;;;;;;;3.28;1.50;;;17.60;82.50;;;;;;5038114;28;20450;-68
2021/12/31 11:44:13;;;;;;;3.03;1.45;;;17.40;82.90;;;;;;5037214;28;20120;-68
2021/12/31 11:46:43;;;;;;;2.95;1.45;;;17.30;83.60;;;;;;5030095;28;20045;-69
2021/12/31 11:49:20;;;;;;;2.90;1.50;;;17.70;83.00;;;;;;5037547;28;20075;-69
2021/12/31 11:52:06;;;;;;;3.03;1.50;;;18.20;82.10;;;;;;5048261;28;20029;-68
2021/12/31 11:54:33;;;;;;;3.42;1.50;;;18.60;80.50;;;;;;5035874;28;20125;-69
2021/12/31 11:57:04;;;;;;;2.70;1.20;;;18.70;81.40;;;;;;5036841;28;20096;-69
2021/12/31 11:59:35;;;;;;;2.88;1.35;;;18.50;81.30;;;;;;5038158;28;20037;-68
2021/12/31 12:02:15;;;;;;;3.05;1.40;;;18.90;80.40;;;;;;5036450;28;20432;-68
2021/12/31 12:04:46;;;;;;;3.55;1.25;;;19.00;79.80;;;;;;5036612;28;20065;-69
2021/12/31 12:07:40;;;;;;;2.22;1.20;;;18.90;79.70;;;;;;5037729;28;20029;-66
2021/12/31 12:10:06;;;;;;;2.95;1.30;;;19.20;79.80;;;;;;5036084;28;20382;-68
2021/12/31 12:12:35;;;;;;;3.22;1.40;;;19.20;79.20;;;;;;5036125;28;20092;-69
2021/12/31 12:15:23;;;;;;;7.60;3.33;;;19.40;78.80;;;;;;5037224;28;20449;-68
2021/12/31 12:17:49;;;;;;;6.18;2.83;;;19.20;79.00;;;;;;5034422;28;20028;-69
2021/12/31 12:20:19;;;;;;;5.07;2.88;;;18.70;79.30;;;;;;5034990;28;20458;-69
2021/12/31 12:22:56;;;;;;;4.10;2.03;;;18.50;81.20;;;;;;5035979;28;20033;-68
2021/12/31 12:25:33;;;;;;;4.88;2.00;;;18.20;80.90;;;;;;5033292;28;20029;-68
2021/12/31 12:28:04;;;;;;;3.92;2.30;;;18.20;81.20;;;;;;5038237;28;20017;-67
2021/12/31 12:30:32;;;;;;;4.45;2.25;;;18.40;80.80;;;;;;5040843;28;20370;-67
2021/12/31 12:35:41;;;;;;;3.63;1.65;;;18.50;80.60;;;;;;5035101;28;20100;-68
2021/12/31 12:38:11;;;;;;;4.53;2.33;;;18.40;81.10;;;;;;5036246;28;20096;-68
2021/12/31 12:40:47;;;;;;;5.53;2.20;;;18.20;82.70;;;;;;5033291;28;20025;-69
2021/12/31 12:43:22;;;;;;;3.53;1.70;;;18.20;82.50;;;;;;5030935;28;20018;-68
2021/12/31 12:45:59;;;;;;;4.85;2.20;;;17.60;83.20;;;;;;5039491;28;20057;-68
2021/12/31 12:48:30;;;;;;;4.78;2.38;;;17.10;84.70;;;;;;5027993;28;20029;-68
2021/12/31 12:50:57;;;;;;;8.35;2.60;;;16.50;86.20;;;;;;5031542;28;20045;-68
2021/12/31 12:53:26;;;;;;;4.35;2.55;;;16.00;87.70;;;;;;5028606;28;20060;-69
2021/12/31 12:56:17;;;;;;;5.35;2.20;;;15.70;88.80;;;;;;5035621;28;20113;-68
2021/12/31 12:58:55;;;;;;;4.63;2.40;;;16.00;88.40;;;;;;5042027;28;20078;-68
2021/12/31 13:01:46;;;;;;;3.90;1.73;;;16.60;86.40;;;;;;5038018;28;20295;-69